Terminal Aerodrome Forecast
Issued by NWS Sterling, VA

Current Version | Previous Version | Graphics & Text | Print | Product List | Glossary On
Versions: 1 2 3 4 5 6 7 8 9 10 11 12 13 14 15 16 17
000
FTUS41 KLWX 190500
TAFMRB
TAF
KMRB 190536Z 1906/2006 30011KT P6SM BKN035
     FM191500 31013G20KT P6SM SCT040
     FM192200 31009KT P6SM FEW250
     FM200000 VRB04KT P6SM FEW250=

USA.gov is the U.S. government's official web portal to all federal, state and local government web resources and services.